Flight Track Log - Related Links

Times and Time Zones

All times are in EST time to prevent confusion due to time zone crossing. See the N100PM flight status page for this flight to view local times or setup timezone preferences in your user account.

Time Position Orientation Groundspeed Altitude Reporting Facility
EST Latitude Longitude Course Direction KTS MPH feet Rate Location/Type
Sun 01:06:58 PM 27.0500 -82.4333 90° East 80 92 1,700  Level Tampa TRACON
Sun 01:08:28 PM 27.0500 -82.3833 90° East 112 129 2,400 467 Climbing Tampa TRACON
Sun 01:10:00 PM 27.0126 -82.3833 180° South  Level FlightAware Approximate
Sun 01:17:00 PM 26.8960 -82.3017 147° Southeast  Level FlightAware Approximate
Sun 01:18:00 PM 26.8756 -82.2868 147° Southeast  Level FlightAware Approximate
Sun 01:19:00 PM 26.8551 -82.2719 147° Southeast  Level FlightAware Approximate
Sun 01:20:00 PM 26.8346 -82.2570 147° Southeast  Level FlightAware Approximate
Sun 01:21:00 PM 26.8141 -82.2422 147° Southeast  Level FlightAware Approximate
Sun 01:22:00 PM 26.7936 -82.2273 147° Southeast  Level FlightAware Approximate
Sun 01:23:00 PM 26.7731 -82.2125 147° Southeast  Level FlightAware Approximate
Sun 01:24:00 PM 26.7526 -82.1976 147° Southeast  Level FlightAware Approximate
Sun 01:25:00 PM 26.7321 -82.1828 147° Southeast  Level FlightAware Approximate
Sun 01:26:00 PM 26.7116 -82.1679 147° Southeast  Level FlightAware Approximate
Sun 01:27:00 PM 26.6910 -82.1531 147° Southeast  Level FlightAware Approximate
Sun 01:28:00 PM 26.6705 -82.1383 147° Southeast  Level FlightAware Approximate
Sun 01:29:00 PM 26.6500 -82.1234 147° Southeast  Level FlightAware Approximate
Sun 01:30:00 PM 26.6295 -82.1086 147° Southeast  Level FlightAware Approximate
Sun 01:31:00 PM 26.6090 -82.0938 147° Southeast  Level FlightAware Approximate
Sun 01:32:00 PM 26.5885 -82.0790 147° Southeast  Level FlightAware Approximate
Sun 01:33:00 PM 26.5680 -82.0642 147° Southeast  Level FlightAware Approximate
Sun 01:34:00 PM 26.5475 -82.0494 147° Southeast  Level FlightAware Approximate
Sun 01:35:00 PM 26.5270 -82.0346 147° Southeast  Level FlightAware Approximate
Sun 01:36:00 PM 26.5064 -82.0198 147° Southeast  Level FlightAware Approximate
Sun 01:37:00 PM 26.4859 -82.0050 147° Southeast  Level FlightAware Approximate
Sun 01:38:00 PM 26.4654 -81.9902 147° Southeast  Level FlightAware Approximate
Sun 01:39:00 PM 26.4449 -81.9754 147° Southeast  Level FlightAware Approximate
Sun 01:40:00 PM 26.4243 -81.9607 147° Southeast  Level FlightAware Approximate
Sun 01:41:00 PM 26.4038 -81.9459 147° Southeast  Level FlightAware Approximate
Sun 01:42:00 PM 26.3833 -81.9312 147° Southeast  Level FlightAware Approximate
Sun 01:43:00 PM 26.3627 -81.9164 147° Southeast  Level FlightAware Approximate
Sun 01:44:00 PM 26.3422 -81.9017 147° Southeast  Level FlightAware Approximate
Sun 01:45:00 PM 26.3217 -81.8869 147° Southeast  Level FlightAware Approximate
Sun 01:46:00 PM 26.3008 -81.8728 149° Southeast  Level FlightAware Approximate
Sun 01:47:00 PM 26.2799 -81.8588 149° Southeast  Level FlightAware Approximate
Sun 01:48:00 PM 26.2589 -81.8448 149° Southeast  Level FlightAware Approximate
Sun 01:49:00 PM 26.2379 -81.8308 149° Southeast  Level FlightAware Approximate
Sun 01:50:00 PM 26.2170 -81.8169 149° Southeast  Level FlightAware Approximate
Sun 01:51:00 PM 26.1967 -81.8017 146° Southeast  Level FlightAware Approximate
Sun 01:52:00 PM 26.1765 -81.7865 146° Southeast  Level FlightAware Approximate
Sun 01:53:00 PM 26.1562 -81.7713 146° Southeast  Level FlightAware Approximate
Sun 01:54:00 PM 26.1500 -81.7667 146° Southeast  Level FlightAware Approximate
Sun 01:55:00 PM 26.1524 -81.7756 146° Southeast  Level Estimated

Login

Don't have an account? Register now (free) for customized features, flight alerts, and more!